Time;durP1;ratioP1;P1;durP2;ratioP2;P2;SDS_P1;SDS_P2;PMS_P1;PMS_P2;Temp;Humidity;BMP_temperature;BMP_pressure;BME280_temperature;BME280_humidity;BME280_pressure;Samples;Min_cycle;Max_cycle;Signal;HPM_P1;HPM_P2
2023/03/30 00:00:52;;;;;;;9.90;9.60;;;21.50;55.80;;;;;;5014020;28;20488;-56
2023/03/30 00:03:21;;;;;;;9.63;9.33;;;21.50;55.80;;;;;;5013882;28;20573;-53
2023/03/30 00:05:48;;;;;;;10.20;9.83;;;21.50;55.80;;;;;;5013597;28;20442;-55
2023/03/30 00:08:17;;;;;;;9.27;9.07;;;21.50;55.80;;;;;;5013598;28;20929;-56
2023/03/30 00:10:44;;;;;;;9.20;9.00;;;21.40;55.80;;;;;;5014159;28;20524;-54
2023/03/30 00:13:11;;;;;;;8.93;8.73;;;21.40;55.80;;;;;;5013909;28;20442;-58
2023/03/30 00:15:39;;;;;;;8.83;8.63;;;21.40;55.80;;;;;;5013453;28;20446;-53
2023/03/30 00:18:08;;;;;;;9.80;9.60;;;21.40;55.80;;;;;;5013762;28;20832;-58
2023/03/30 00:20:36;;;;;;;9.83;9.53;;;21.40;55.80;;;;;;5013916;28;20450;-58
2023/03/30 00:23:03;;;;;;;9.43;9.23;;;21.40;55.80;;;;;;5012885;28;20477;-59
2023/03/30 00:25:30;;;;;;;10.47;10.17;;;21.40;55.80;;;;;;5013228;28;20538;-57
2023/03/30 00:27:56;;;;;;;10.10;9.90;;;21.40;55.90;;;;;;5013236;28;20550;-55
2023/03/30 00:30:23;;;;;;;10.20;9.90;;;21.40;55.90;;;;;;5013708;28;20529;-56
2023/03/30 00:32:50;;;;;;;9.70;9.50;;;21.30;55.90;;;;;;5013270;28;20978;-58
2023/03/30 00:35:19;;;;;;;9.33;9.13;;;21.40;55.90;;;;;;5013641;28;20445;-57
2023/03/30 00:37:48;;;;;;;10.23;9.90;;;21.40;55.90;;;;;;5012919;28;20496;-57
2023/03/30 00:40:17;;;;;;;9.20;9.00;;;21.40;56.00;;;;;;5013214;28;20540;-58
2023/03/30 00:42:45;;;;;;;9.43;9.10;;;21.30;56.00;;;;;;5012829;28;20476;-59
2023/03/30 00:45:23;;;;;;;9.70;9.50;;;21.30;56.00;;;;;;5013191;28;20485;-57
2023/03/30 00:47:56;;;;;;;9.83;9.43;;;21.30;56.00;;;;;;5012997;28;20890;-59
2023/03/30 00:50:28;;;;;;;9.17;8.97;;;21.30;56.10;;;;;;5013006;28;20477;-58
2023/03/30 00:52:59;;;;;;;10.30;10.00;;;21.30;56.10;;;;;;5012904;28;20453;-52
2023/03/30 00:55:30;;;;;;;9.93;9.63;;;21.30;56.10;;;;;;5013281;28;20470;-57
2023/03/30 00:57:57;;;;;;;10.07;9.77;;;21.30;56.10;;;;;;5012623;28;20509;-55
2023/03/30 01:00:24;;;;;;;10.10;9.90;;;21.30;56.10;;;;;;5012926;28;20500;-53
2023/03/30 01:02:57;;;;;;;10.37;10.07;;;21.30;56.10;;;;;;5012676;28;20772;-58
2023/03/30 01:05:27;;;;;;;9.80;9.50;;;21.20;56.10;;;;;;5012929;28;20537;-58
2023/03/30 01:07:56;;;;;;;10.00;9.80;;;21.30;56.20;;;;;;5012400;28;20485;-59
2023/03/30 01:10:24;;;;;;;9.67;9.47;;;21.20;56.20;;;;;;5011840;28;20869;-56
2023/03/30 01:12:51;;;;;;;9.70;9.50;;;21.20;56.20;;;;;;5013036;28;20476;-56
2023/03/30 01:15:19;;;;;;;10.40;10.10;;;21.20;56.20;;;;;;5012487;28;20477;-58
2023/03/30 01:18:02;;;;;;;9.67;9.47;;;21.20;56.20;;;;;;5012408;28;20470;-56
2023/03/30 01:21:01;;;;;;;9.47;9.27;;;21.20;56.30;;;;;;5012277;28;20493;-55
2023/03/30 01:24:16;;;;;;;10.13;9.93;;;21.20;56.40;;;;;;5012446;28;20482;-56
2023/03/30 01:26:52;;;;;;;9.60;9.40;;;21.20;56.30;;;;;;4992144;28;20494;-57
2023/03/30 01:29:29;;;;;;;9.80;9.60;;;21.20;56.40;;;;;;5012136;28;20484;-58
2023/03/30 01:32:44;;;;;;;10.77;10.47;;;21.20;56.50;;;;;;5012362;28;20474;-55
2023/03/30 01:35:59;;;;;;;9.50;9.27;;;21.20;56.60;;;;;;5012256;28;20529;-58
2023/03/30 01:38:45;;;;;;;9.80;9.60;;;21.10;56.50;;;;;;4951260;29;20886;-56
2023/03/30 01:41:22;;;;;;;9.40;9.20;;;21.10;56.60;;;;;;4951661;28;20503;-57
2023/03/30 01:43:57;;;;;;;10.00;9.70;;;21.10;56.60;;;;;;4996008;28;20576;-54
2023/03/30 01:46:29;;;;;;;10.40;10.10;;;21.10;56.60;;;;;;5012373;28;20548;-52
2023/03/30 01:49:02;;;;;;;10.10;9.90;;;21.10;56.70;;;;;;5011783;28;20478;-55
2023/03/30 01:51:33;;;;;;;9.97;9.77;;;21.10;56.70;;;;;;5011988;28;20931;-52
2023/03/30 01:54:06;;;;;;;9.57;9.37;;;21.10;56.70;;;;;;5012135;28;20832;-56
2023/03/30 01:56:38;;;;;;;9.60;9.40;;;21.10;56.60;;;;;;5012035;28;20544;-55
2023/03/30 01:59:11;;;;;;;9.40;9.20;;;21.10;56.60;;;;;;5011566;28;20553;-58
2023/03/30 02:01:41;;;;;;;10.20;10.00;;;21.10;56.70;;;;;;5012166;28;20538;-55
2023/03/30 02:04:10;;;;;;;9.40;9.10;;;21.10;56.70;;;;;;5011969;28;20477;-55
2023/03/30 02:06:42;;;;;;;10.10;9.80;;;21.10;56.70;;;;;;5035717;22;20485;-53
2023/03/30 02:09:12;;;;;;;9.93;9.73;;;21.10;56.70;;;;;;5020174;28;20870;-55
2023/03/30 02:11:43;;;;;;;9.87;9.67;;;21.10;56.70;;;;;;5026833;28;20454;-53
2023/03/30 02:14:12;;;;;;;9.90;9.70;;;21.10;56.70;;;;;;5026542;28;20452;-52
2023/03/30 02:16:45;;;;;;;10.20;10.00;;;21.10;56.70;;;;;;5022947;28;20470;-51
2023/03/30 02:19:12;;;;;;;9.60;9.40;;;21.00;56.70;;;;;;5006547;28;20474;-56
2023/03/30 02:21:39;;;;;;;9.90;9.60;;;21.00;56.70;;;;;;5006764;28;20471;-55
2023/03/30 02:24:16;;;;;;;9.90;9.70;;;21.00;56.70;;;;;;5001768;28;20521;-53
2023/03/30 02:26:45;;;;;;;9.50;9.20;;;21.00;56.70;;;;;;4997443;28;20494;-51
2023/03/30 02:29:13;;;;;;;9.30;9.10;;;21.00;56.70;;;;;;4997202;28;20966;-50
2023/03/30 02:31:40;;;;;;;9.00;8.80;;;21.00;56.80;;;;;;4996437;28;20478;-50
2023/03/30 02:34:15;;;;;;;10.47;10.17;;;21.00;56.80;;;;;;4995792;28;21016;-55
2023/03/30 02:37:10;;;;;;;9.87;9.67;;;21.00;56.80;;;;;;4995556;28;20963;-50
2023/03/30 02:39:47;;;;;;;9.33;9.10;;;21.00;56.80;;;;;;4995793;28;20481;-53
2023/03/30 02:42:46;;;;;;;10.53;10.23;;;21.00;56.80;;;;;;4995845;28;20866;-51
2023/03/30 02:45:24;;;;;;;9.87;9.67;;;21.00;56.80;;;;;;4995691;28;20569;-51
2023/03/30 02:48:00;;;;;;;10.20;9.90;;;20.90;56.80;;;;;;4989526;28;20482;-51
2023/03/30 02:50:34;;;;;;;10.20;10.00;;;20.90;56.80;;;;;;4995460;28;20944;-50
2023/03/30 02:53:11;;;;;;;9.90;9.60;;;20.90;56.80;;;;;;4995529;28;20477;-54
2023/03/30 02:55:44;;;;;;;9.40;9.20;;;20.90;56.80;;;;;;4995095;28;20537;-55
2023/03/30 02:58:20;;;;;;;9.63;9.33;;;20.90;56.80;;;;;;4994576;28;20478;-51
2023/03/30 03:00:51;;;;;;;9.90;9.70;;;20.90;56.80;;;;;;4995637;28;20446;-52
2023/03/30 03:03:22;;;;;;;9.23;9.03;;;20.90;56.90;;;;;;4995252;28;20473;-52
2023/03/30 03:05:52;;;;;;;9.53;9.33;;;20.90;56.90;;;;;;4994980;28;20987;-53
2023/03/30 03:08:23;;;;;;;9.70;9.50;;;20.90;57.00;;;;;;4994783;28;20479;-52
2023/03/30 03:10:50;;;;;;;10.03;9.80;;;20.90;56.90;;;;;;4995438;28;20457;-53
2023/03/30 03:13:20;;;;;;;9.90;9.70;;;20.90;57.00;;;;;;4995125;28;20542;-50
2023/03/30 03:15:48;;;;;;;9.80;9.60;;;20.90;57.00;;;;;;4994862;28;20505;-56
2023/03/30 03:18:15;;;;;;;10.53;10.30;;;20.90;56.90;;;;;;4994698;28;20470;-51
2023/03/30 03:20:42;;;;;;;10.27;10.07;;;20.90;57.00;;;;;;4994924;28;20870;-54
2023/03/30 03:23:09;;;;;;;9.40;9.20;;;20.90;56.90;;;;;;4994930;28;20482;-52
2023/03/30 03:25:36;;;;;;;9.37;9.17;;;20.90;57.00;;;;;;4994645;28;20570;-50
2023/03/30 03:28:03;;;;;;;9.50;9.30;;;20.90;56.90;;;;;;4994746;28;20876;-51
2023/03/30 03:30:31;;;;;;;9.63;9.37;;;20.90;56.90;;;;;;4994892;28;20495;-52
2023/03/30 03:32:58;;;;;;;9.23;9.03;;;20.80;56.80;;;;;;4994320;28;20561;-50
2023/03/30 03:35:26;;;;;;;9.40;9.20;;;20.80;56.90;;;;;;4994296;28;20475;-51
2023/03/30 03:37:53;;;;;;;9.80;9.60;;;20.80;56.80;;;;;;4994449;28;20935;-51
2023/03/30 03:40:20;;;;;;;9.60;9.40;;;20.90;57.50;;;;;;4994610;28;20471;-52
2023/03/30 03:42:47;;;;;;;9.77;9.57;;;20.80;56.90;;;;;;4994531;28;20877;-54
2023/03/30 03:45:14;;;;;;;9.97;9.77;;;20.80;56.90;;;;;;4994559;28;20923;-52
2023/03/30 03:47:42;;;;;;;10.00;9.80;;;20.80;56.90;;;;;;4994185;28;20517;-54
2023/03/30 03:50:10;;;;;;;10.13;9.93;;;20.80;57.00;;;;;;4994363;28;20509;-50
2023/03/30 03:52:37;;;;;;;9.90;9.60;;;20.80;57.00;;;;;;4994285;28;20995;-55
2023/03/30 03:55:05;;;;;;;9.20;9.00;;;20.80;57.00;;;;;;4994615;28;20530;-51
2023/03/30 03:57:32;;;;;;;9.73;9.53;;;20.80;57.00;;;;;;4994073;28;20513;-51
2023/03/30 03:59:59;;;;;;;9.20;8.97;;;20.80;57.00;;;;;;4994780;28;20529;-53
2023/03/30 04:02:26;;;;;;;9.57;9.37;;;20.80;57.00;;;;;;4993837;28;20474;-54
2023/03/30 04:04:56;;;;;;;10.00;9.80;;;20.80;57.00;;;;;;4993749;28;20511;-52
2023/03/30 04:07:24;;;;;;;9.50;9.30;;;20.80;57.00;;;;;;4993846;28;20570;-55
2023/03/30 04:09:51;;;;;;;9.70;9.50;;;20.80;57.00;;;;;;4994061;28;20443;-53
2023/03/30 04:12:19;;;;;;;9.80;9.60;;;20.80;57.10;;;;;;4993927;28;20485;-58
2023/03/30 04:14:45;;;;;;;10.13;9.93;;;20.70;57.00;;;;;;4993998;28;20481;-50
2023/03/30 04:17:13;;;;;;;10.27;9.97;;;20.80;57.00;;;;;;4993707;28;20506;-53
2023/03/30 04:19:40;;;;;;;10.13;9.90;;;20.70;57.10;;;;;;4993863;28;20537;-57
2023/03/30 04:22:12;;;;;;;9.70;9.50;;;20.80;57.20;;;;;;4993964;28;20447;-56
2023/03/30 04:24:40;;;;;;;10.40;9.60;;;20.80;57.20;;;;;;4993346;28;20482;-53
2023/03/30 04:27:08;;;;;;;9.20;8.60;;;20.80;57.20;;;;;;4993594;28;20466;-51
2023/03/30 04:29:39;;;;;;;9.57;9.30;;;20.80;57.30;;;;;;4993601;28;20455;-52
2023/03/30 04:32:09;;;;;;;10.07;9.83;;;20.70;57.40;;;;;;4993706;28;20964;-53
2023/03/30 04:34:36;;;;;;;9.60;9.40;;;20.80;57.60;;;;;;4993212;28;20455;-51
2023/03/30 04:37:03;;;;;;;11.00;10.70;;;20.70;57.40;;;;;;4993443;28;20494;-55
2023/03/30 04:39:31;;;;;;;9.60;9.40;;;20.80;57.60;;;;;;4993822;28;20481;-50
2023/03/30 04:42:01;;;;;;;9.63;9.43;;;20.80;57.50;;;;;;4993436;28;20479;-55
2023/03/30 04:44:28;;;;;;;10.10;9.80;;;20.80;57.50;;;;;;4993066;28;20481;-53
2023/03/30 04:46:55;;;;;;;9.50;9.20;;;20.80;57.40;;;;;;4992640;28;20497;-56
2023/03/30 04:49:22;;;;;;;9.80;9.50;;;20.80;57.40;;;;;;4993104;28;20450;-54
2023/03/30 04:51:49;;;;;;;9.50;9.30;;;20.80;57.30;;;;;;4993258;28;20542;-55
2023/03/30 04:54:16;;;;;;;9.10;8.90;;;20.80;57.30;;;;;;4993040;28;21010;-57
2023/03/30 04:56:44;;;;;;;9.40;9.20;;;20.90;57.20;;;;;;4993041;28;20463;-50
2023/03/30 04:59:11;;;;;;;9.30;9.00;;;21.00;57.10;;;;;;4992894;28;20478;-51
2023/03/30 05:01:38;;;;;;;9.00;8.80;;;21.10;57.50;;;;;;4993185;28;20446;-53
2023/03/30 05:04:05;;;;;;;9.00;8.70;;;21.10;57.60;;;;;;4992902;28;20489;-51
2023/03/30 05:06:32;;;;;;;9.03;8.83;;;21.20;57.90;;;;;;4992755;28;20479;-54
2023/03/30 05:08:58;;;;;;;8.70;8.40;;;21.20;58.00;;;;;;4992891;28;20535;-57
2023/03/30 05:11:25;;;;;;;8.70;8.50;;;21.20;58.20;;;;;;4992883;28;20491;-54
2023/03/30 05:13:54;;;;;;;8.80;8.50;;;21.30;58.20;;;;;;4992886;28;20542;-54
2023/03/30 05:16:21;;;;;;;8.03;7.73;;;21.30;58.80;;;;;;4992862;28;20475;-53
2023/03/30 05:18:48;;;;;;;8.97;8.77;;;21.40;58.30;;;;;;4992523;28;20446;-57
2023/03/30 05:21:15;;;;;;;9.30;9.00;;;21.40;58.30;;;;;;4992822;28;20534;-55
2023/03/30 05:23:42;;;;;;;8.73;8.23;;;21.40;58.40;;;;;;4992453;28;20529;-53
2023/03/30 05:26:09;;;;;;;9.30;9.10;;;21.50;58.50;;;;;;4992810;28;20577;-50
2023/03/30 05:28:36;;;;;;;9.90;9.60;;;21.50;58.30;;;;;;4992333;28;20894;-53
2023/03/30 05:31:04;;;;;;;8.80;8.50;;;21.50;58.10;;;;;;4992366;28;20536;-53
2023/03/30 05:33:31;;;;;;;8.57;8.37;;;21.60;57.70;;;;;;4992619;28;20879;-55
2023/03/30 05:35:58;;;;;;;9.53;9.27;;;21.60;57.70;;;;;;4992689;28;20482;-52
2023/03/30 05:38:25;;;;;;;9.03;8.73;;;21.60;58.60;;;;;;4992396;28;20554;-56
2023/03/30 05:40:52;;;;;;;9.00;8.80;;;21.60;59.10;;;;;;4992807;28;20486;-53
2023/03/30 05:43:19;;;;;;;8.50;8.30;;;21.70;59.30;;;;;;4991483;28;20522;-57
2023/03/30 05:45:46;;;;;;;8.60;8.37;;;21.70;59.40;;;;;;4992437;28;20490;-57
2023/03/30 05:48:14;;;;;;;8.80;8.60;;;21.80;59.60;;;;;;4992570;28;20517;-56
2023/03/30 05:50:41;;;;;;;9.50;9.30;;;21.80;59.40;;;;;;4992728;28;20969;-56
2023/03/30 05:53:08;;;;;;;10.10;9.80;;;21.90;59.30;;;;;;4992536;28;20459;-52
2023/03/30 05:55:35;;;;;;;9.50;9.20;;;22.00;59.60;;;;;;4992534;28;20486;-54
2023/03/30 05:58:02;;;;;;;9.20;8.90;;;22.00;59.50;;;;;;4997780;28;20971;-55
2023/03/30 06:00:32;;;;;;;10.43;10.13;;;22.10;59.30;;;;;;4998821;28;20812;-57
2023/03/30 06:02:59;;;;;;;10.67;10.20;;;22.10;59.00;;;;;;4998728;28;20826;-57
2023/03/30 06:05:27;;;;;;;9.90;9.60;;;22.10;58.90;;;;;;4998774;28;20569;-56
2023/03/30 06:07:54;;;;;;;9.57;9.27;;;22.20;58.80;;;;;;4998729;28;20565;-57
2023/03/30 06:10:21;;;;;;;9.80;9.40;;;22.20;58.70;;;;;;4998684;28;20489;-57
2023/03/30 06:12:48;;;;;;;10.37;10.07;;;22.20;58.60;;;;;;4998460;28;20542;-54
2023/03/30 06:15:15;;;;;;;10.00;9.80;;;22.20;58.40;;;;;;4998393;28;20525;-57
2023/03/30 06:17:42;;;;;;;9.60;9.40;;;22.30;58.40;;;;;;4998399;28;20513;-52
2023/03/30 06:20:11;;;;;;;9.00;8.80;;;22.30;58.30;;;;;;4998811;28;20447;-54
2023/03/30 06:22:40;;;;;;;9.67;9.37;;;22.30;58.20;;;;;;4998228;28;20959;-52
2023/03/30 06:25:08;;;;;;;9.87;9.60;;;22.40;58.30;;;;;;4998547;28;20486;-55
2023/03/30 06:27:36;;;;;;;9.90;9.60;;;22.40;58.00;;;;;;4998582;28;20916;-56
2023/03/30 06:30:04;;;;;;;9.47;8.87;;;22.40;57.90;;;;;;4998527;28;20461;-51
2023/03/30 06:32:31;;;;;;;9.63;9.43;;;22.40;58.10;;;;;;4998578;28;20450;-50
2023/03/30 06:34:58;;;;;;;9.30;9.00;;;22.40;58.70;;;;;;5000483;28;20473;-55
2023/03/30 06:37:25;;;;;;;9.23;9.03;;;22.40;58.80;;;;;;4999564;28;20502;-52
2023/03/30 06:39:53;;;;;;;10.77;10.27;;;22.30;58.30;;;;;;4999368;28;20538;-54
2023/03/30 06:42:20;;;;;;;10.17;9.80;;;22.40;58.30;;;;;;5000335;28;20813;-51
2023/03/30 06:44:47;;;;;;;11.40;11.00;;;22.40;58.00;;;;;;4999649;28;20442;-56
2023/03/30 06:47:14;;;;;;;10.37;10.10;;;22.50;57.90;;;;;;5000378;28;20525;-54
2023/03/30 06:49:41;;;;;;;9.93;9.63;;;22.50;58.70;;;;;;5000380;28;20446;-59
2023/03/30 06:52:08;;;;;;;10.17;9.77;;;22.60;59.20;;;;;;4999987;28;20888;-57
2023/03/30 06:54:35;;;;;;;10.20;9.90;;;22.60;59.20;;;;;;5000696;28;20896;-56
2023/03/30 06:57:03;;;;;;;9.70;9.40;;;22.60;59.00;;;;;;5000725;28;20470;-53
2023/03/30 06:59:31;;;;;;;10.60;10.30;;;22.60;58.90;;;;;;4999978;28;20970;-56
2023/03/30 07:01:59;;;;;;;10.00;9.70;;;22.70;58.70;;;;;;4999517;28;20493;-57
2023/03/30 07:04:26;;;;;;;9.60;9.20;;;22.70;58.40;;;;;;4999956;28;20523;-58
2023/03/30 07:06:56;;;;;;;10.30;10.00;;;22.80;58.30;;;;;;5000161;28;20497;-59
2023/03/30 07:09:23;;;;;;;10.10;9.80;;;22.80;58.00;;;;;;4994675;28;20451;-54
2023/03/30 07:11:50;;;;;;;10.60;10.30;;;22.90;58.10;;;;;;4996186;28;20494;-53
2023/03/30 07:14:18;;;;;;;10.73;10.43;;;22.90;58.20;;;;;;4996940;28;20478;-55
2023/03/30 07:16:47;;;;;;;10.83;10.33;;;22.90;57.70;;;;;;4996708;28;20498;-54
2023/03/30 07:19:14;;;;;;;9.93;9.63;;;22.90;57.40;;;;;;4996533;28;20476;-55
2023/03/30 07:21:41;;;;;;;9.70;9.10;;;23.00;57.30;;;;;;4996442;28;20451;-56
2023/03/30 07:24:08;;;;;;;10.40;10.10;;;23.00;57.10;;;;;;4997007;28;20864;-54
2023/03/30 07:26:35;;;;;;;10.10;9.80;;;22.90;56.30;;;;;;4996819;28;20518;-50
2023/03/30 07:29:03;;;;;;;9.90;9.70;;;22.90;56.70;;;;;;4995305;28;20486;-53
2023/03/30 07:31:31;;;;;;;9.70;9.40;;;22.90;57.90;;;;;;4997009;28;20473;-61
2023/03/30 07:33:58;;;;;;;10.20;10.00;;;22.90;56.90;;;;;;4997475;28;20876;-56
2023/03/30 07:36:25;;;;;;;9.97;9.67;;;22.90;56.70;;;;;;4996828;28;20494;-59
2023/03/30 07:38:52;;;;;;;10.40;10.10;;;22.90;56.50;;;;;;4997069;28;20473;-55
2023/03/30 07:41:20;;;;;;;10.73;10.43;;;23.00;56.90;;;;;;4996512;28;20554;-54
2023/03/30 07:43:46;;;;;;;11.10;10.80;;;22.90;56.90;;;;;;4996394;28;20453;-55
2023/03/30 07:46:13;;;;;;;10.00;9.70;;;23.00;56.90;;;;;;4996479;28;20541;-58
2023/03/30 07:48:42;;;;;;;10.77;10.47;;;23.00;56.80;;;;;;4996486;28;20528;-56
2023/03/30 07:51:11;;;;;;;9.77;9.50;;;23.00;56.70;;;;;;4997727;28;20473;-54
2023/03/30 07:53:39;;;;;;;10.90;10.43;;;23.00;56.50;;;;;;4996931;28;20486;-56
2023/03/30 07:56:07;;;;;;;10.00;9.80;;;22.90;56.30;;;;;;4996373;28;20450;-54
2023/03/30 07:58:34;;;;;;;10.20;9.70;;;22.90;56.20;;;;;;4995667;28;20945;-56
2023/03/30 08:01:02;;;;;;;10.10;9.80;;;23.00;56.10;;;;;;4996258;28;20451;-55
2023/03/30 08:03:31;;;;;;;10.00;9.60;;;23.00;55.80;;;;;;4996399;28;20480;-54
2023/03/30 08:06:03;;;;;;;10.53;10.13;;;23.00;55.80;;;;;;4996021;28;20519;-55
2023/03/30 08:08:30;;;;;;;10.50;10.20;;;23.00;55.70;;;;;;5065221;22;20492;-56
2023/03/30 08:10:57;;;;;;;10.53;10.23;;;23.10;55.80;;;;;;5034588;28;20866;-60
2023/03/30 08:13:24;;;;;;;10.90;10.60;;;23.10;55.90;;;;;;5037788;28;20700;-57
2023/03/30 08:15:53;;;;;;;11.73;10.73;;;23.20;56.10;;;;;;5035851;28;20865;-57
2023/03/30 08:18:20;;;;;;;10.07;9.77;;;23.20;56.00;;;;;;5034833;28;20472;-56
2023/03/30 08:20:50;;;;;;;10.10;9.80;;;23.20;55.90;;;;;;5035016;28;20890;-57
2023/03/30 08:23:20;;;;;;;10.40;10.10;;;23.20;56.10;;;;;;5036216;28;20473;-60
2023/03/30 08:25:51;;;;;;;10.00;9.70;;;23.30;56.90;;;;;;5037775;28;20515;-57
2023/03/30 08:28:18;;;;;;;9.80;9.60;;;23.30;56.70;;;;;;5036421;28;20500;-61
2023/03/30 08:30:46;;;;;;;11.03;10.73;;;23.30;56.10;;;;;;5036430;28;20445;-59
2023/03/30 08:33:13;;;;;;;10.37;9.67;;;23.30;56.40;;;;;;5035010;28;20451;-59
2023/03/30 08:35:40;;;;;;;10.00;9.60;;;23.30;56.70;;;;;;5034512;28;20953;-59
2023/03/30 08:38:08;;;;;;;10.50;10.20;;;23.30;56.40;;;;;;5034924;28;20461;-55
2023/03/30 08:40:40;;;;;;;11.43;10.97;;;23.30;56.50;;;;;;5033969;28;20484;-60
2023/03/30 08:43:33;;;;;;;11.27;10.97;;;23.40;57.30;;;;;;5034318;28;20540;-58
2023/03/30 08:46:01;;;;;;;11.47;10.97;;;23.40;56.70;;;;;;5032752;28;20572;-58
2023/03/30 08:48:32;;;;;;;11.10;10.80;;;23.40;56.70;;;;;;5033442;28;20507;-58
2023/03/30 08:51:01;;;;;;;11.83;11.43;;;23.30;57.10;;;;;;5034993;28;20876;-60
2023/03/30 08:53:30;;;;;;;12.80;12.30;;;23.40;57.40;;;;;;5035993;28;20444;-60
2023/03/30 08:56:03;;;;;;;11.77;11.47;;;23.40;58.80;;;;;;5035315;28;20503;-58
2023/03/30 08:58:38;;;;;;;12.07;11.67;;;23.40;57.90;;;;;;5035596;28;20521;-57
2023/03/30 09:01:14;;;;;;;12.00;11.43;;;23.40;58.10;;;;;;5037592;28;20456;-56
2023/03/30 09:03:49;;;;;;;12.30;11.87;;;23.50;57.80;;;;;;5034817;28;20860;-55
2023/03/30 09:06:27;;;;;;;12.00;11.50;;;23.50;58.00;;;;;;5034443;28;20512;-58
2023/03/30 09:08:54;;;;;;;10.90;10.50;;;23.50;58.20;;;;;;5034330;28;20473;-57
2023/03/30 09:11:31;;;;;;;11.80;11.50;;;23.60;58.30;;;;;;5034313;28;20954;-58
2023/03/30 09:14:01;;;;;;;10.68;10.18;;;23.60;58.30;;;;;;5034427;28;20439;-58
2023/03/30 09:16:36;;;;;;;11.67;11.27;;;23.70;58.20;;;;;;5034515;28;20285;-58
2023/03/30 09:19:09;;;;;;;11.53;11.23;;;23.70;57.70;;;;;;5033797;28;21023;-57
2023/03/30 09:21:37;;;;;;;11.57;11.07;;;23.70;57.30;;;;;;5035011;28;20476;-58
2023/03/30 09:24:13;;;;;;;11.70;11.30;;;23.70;57.60;;;;;;5036211;28;20548;-58
2023/03/30 09:26:50;;;;;;;11.20;10.90;;;23.70;58.20;;;;;;5035774;28;20485;-57
2023/03/30 09:29:20;;;;;;;11.33;11.00;;;23.80;58.50;;;;;;5035051;28;20492;-51
2023/03/30 09:31:51;;;;;;;11.10;10.80;;;23.70;57.40;;;;;;5034231;28;20876;-55
2023/03/30 09:34:27;;;;;;;12.40;11.73;;;23.70;57.00;;;;;;5035349;28;20481;-58
2023/03/30 09:36:57;;;;;;;11.27;10.97;;;23.60;56.90;;;;;;5039630;28;20437;-57
2023/03/30 09:39:26;;;;;;;11.20;10.80;;;23.60;56.70;;;;;;5038304;28;20809;-59
2023/03/30 09:42:08;;;;;;;11.27;10.67;;;23.60;56.70;;;;;;5037992;28;20449;-57
2023/03/30 09:44:36;;;;;;;12.13;11.17;;;23.60;56.50;;;;;;5037257;28;20448;-53
2023/03/30 09:47:18;;;;;;;10.63;10.10;;;23.60;56.90;;;;;;5034820;28;20485;-59
2023/03/30 09:49:45;;;;;;;12.40;11.80;;;23.60;57.00;;;;;;5034984;28;20985;-56
2023/03/30 09:52:20;;;;;;;9.83;9.50;;;23.60;55.70;;;;;;5038385;28;20448;-56
2023/03/30 09:54:48;;;;;;;9.83;9.53;;;23.60;56.00;;;;;;5032685;28;21001;-60
2023/03/30 09:57:26;;;;;;;17.97;17.47;;;23.60;56.20;;;;;;5032745;28;20551;-59
2023/03/30 09:59:54;;;;;;;19.20;18.43;;;23.60;57.00;;;;;;5035020;28;20476;-59
2023/03/30 10:02:23;;;;;;;17.52;16.73;;;23.60;56.70;;;;;;5032631;28;20471;-61
2023/03/30 10:05:02;;;;;;;18.57;17.87;;;23.60;56.70;;;;;;5033901;28;20202;-62
2023/03/30 10:07:32;;;;;;;18.70;17.90;;;23.60;56.60;;;;;;5034053;28;20527;-60
2023/03/30 10:10:02;;;;;;;19.30;18.20;;;23.60;56.90;;;;;;5033577;28;20879;-59
2023/03/30 10:12:30;;;;;;;18.10;17.40;;;23.60;57.10;;;;;;5034509;28;20452;-62
2023/03/30 10:15:03;;;;;;;18.20;17.40;;;23.50;56.90;;;;;;5034237;28;20445;-60
2023/03/30 10:17:30;;;;;;;18.70;17.90;;;23.60;56.80;;;;;;5034175;28;20500;-59
2023/03/30 10:20:17;;;;;;;18.87;17.97;;;23.50;56.80;;;;;;5032499;28;20959;-60
2023/03/30 10:22:52;;;;;;;19.20;18.40;;;23.60;56.90;;;;;;5032188;28;20452;-59
2023/03/30 10:25:22;;;;;;;17.90;17.20;;;23.60;56.80;;;;;;5032074;28;20467;-60
2023/03/30 10:27:54;;;;;;;17.20;16.70;;;23.60;56.70;;;;;;5032548;28;20850;-63
2023/03/30 10:30:24;;;;;;;18.53;17.83;;;23.60;56.70;;;;;;5033368;28;20477;-63
2023/03/30 10:32:53;;;;;;;17.10;16.43;;;23.60;56.40;;;;;;5033310;28;20810;-63
2023/03/30 10:35:23;;;;;;;18.10;17.50;;;23.60;56.60;;;;;;5031789;28;20445;-60
2023/03/30 10:37:52;;;;;;;18.10;17.40;;;23.60;56.70;;;;;;5031028;28;20503;-60
2023/03/30 10:40:23;;;;;;;17.97;17.27;;;23.60;56.60;;;;;;5031708;28;20525;-61
2023/03/30 10:42:55;;;;;;;18.43;17.63;;;23.60;56.80;;;;;;5031685;28;20541;-58
2023/03/30 10:45:28;;;;;;;17.70;17.10;;;23.70;56.90;;;;;;5035030;28;20986;-57
2023/03/30 10:48:05;;;;;;;17.97;17.37;;;23.80;56.80;;;;;;5035346;28;20588;-61
2023/03/30 10:50:40;;;;;;;18.53;17.93;;;23.80;56.60;;;;;;5035985;28;20818;-60
2023/03/30 10:53:25;;;;;;;18.30;17.33;;;23.80;56.60;;;;;;5034990;28;20452;-55
2023/03/30 10:55:58;;;;;;;18.90;18.10;;;23.80;56.50;;;;;;5035083;28;20640;-58
2023/03/30 10:58:43;;;;;;;19.30;18.47;;;23.90;56.80;;;;;;5034865;28;20901;-59
2023/03/30 11:01:17;;;;;;;18.40;17.70;;;23.80;56.40;;;;;;5034608;28;20456;-59
2023/03/30 11:03:47;;;;;;;18.27;17.67;;;23.70;56.40;;;;;;5034960;28;20880;-55
2023/03/30 11:06:20;;;;;;;17.90;17.20;;;23.80;56.50;;;;;;5035209;28;20533;-54
2023/03/30 11:08:51;;;;;;;19.40;18.70;;;23.80;56.50;;;;;;5034555;28;20515;-54
2023/03/30 11:11:21;;;;;;;18.63;17.93;;;23.80;56.60;;;;;;5034921;28;20477;-57
2023/03/30 11:13:54;;;;;;;19.03;18.23;;;23.80;56.80;;;;;;5015852;28;20541;-60
2023/03/30 11:16:25;;;;;;;19.10;18.23;;;23.80;56.80;;;;;;5015836;28;20477;-58
2023/03/30 11:18:56;;;;;;;17.87;17.27;;;23.90;56.60;;;;;;5015590;28;20568;-60
2023/03/30 11:21:30;;;;;;;18.57;17.77;;;23.90;56.30;;;;;;5017026;28;20517;-60
2023/03/30 11:24:01;;;;;;;19.17;18.47;;;24.00;56.40;;;;;;5038359;28;20502;-60
2023/03/30 11:26:35;;;;;;;18.27;17.50;;;24.00;56.30;;;;;;5034946;28;20516;-61
2023/03/30 11:29:24;;;;;;;17.67;17.07;;;23.90;55.90;;;;;;5034314;28;20556;-61
2023/03/30 11:31:59;;;;;;;18.97;18.00;;;23.90;55.60;;;;;;5034965;28;20502;-63
2023/03/30 11:34:32;;;;;;;17.80;17.20;;;23.90;56.10;;;;;;5034851;28;20452;-65
2023/03/30 11:37:03;;;;;;;17.90;17.10;;;23.90;56.10;;;;;;5034411;28;21002;-67
2023/03/30 11:39:32;;;;;;;17.80;17.20;;;24.00;56.20;;;;;;5034700;28;20492;-61
2023/03/30 11:42:07;;;;;;;17.80;17.20;;;23.90;55.70;;;;;;5033925;28;20484;-63
2023/03/30 11:44:35;;;;;;;17.90;17.30;;;23.90;55.90;;;;;;5034092;28;21120;-64
2023/03/30 11:47:25;;;;;;;17.47;16.87;;;24.00;56.30;;;;;;5034239;28;21086;-64
2023/03/30 11:50:08;;;;;;;18.17;17.57;;;24.10;56.00;;;;;;5033895;28;20473;-60
2023/03/30 11:52:41;;;;;;;17.57;17.00;;;24.00;55.60;;;;;;5014273;28;20450;-65
2023/03/30 11:55:30;;;;;;;17.57;16.77;;;24.10;55.70;;;;;;5028805;28;20544;-61
2023/03/30 11:58:09;;;;;;;18.50;17.90;;;24.10;55.60;;;;;;5033796;28;20822;-63
2023/03/30 12:00:48;;;;;;;17.20;16.50;;;24.20;55.50;;;;;;5034110;28;20528;-62
2023/03/30 12:03:26;;;;;;;18.40;17.50;;;24.10;55.10;;;;;;5033887;28;20476;-58
2023/03/30 12:05:59;;;;;;;17.10;16.50;;;24.00;55.20;;;;;;5033640;28;20532;-59
2023/03/30 12:08:43;;;;;;;16.97;16.37;;;24.00;55.20;;;;;;5032976;28;21009;-59
2023/03/30 12:11:21;;;;;;;18.00;17.27;;;24.00;55.60;;;;;;5034134;28;20480;-61
2023/03/30 12:13:49;;;;;;;19.07;18.00;;;24.10;55.30;;;;;;5034538;28;20507;-57
2023/03/30 12:16:22;;;;;;;19.00;18.10;;;24.00;54.90;;;;;;5034549;28;20463;-59
2023/03/30 12:18:58;;;;;;;18.20;17.40;;;23.90;55.00;;;;;;5034484;28;20497;-60
2023/03/30 12:21:31;;;;;;;18.03;17.30;;;24.00;56.20;;;;;;5034993;28;20978;-61
2023/03/30 12:24:08;;;;;;;19.03;18.23;;;24.20;55.80;;;;;;5033693;28;20814;-61
2023/03/30 12:26:36;;;;;;;17.80;17.00;;;24.10;56.00;;;;;;5033096;28;20484;-59
2023/03/30 12:29:10;;;;;;;17.43;16.73;;;24.10;55.80;;;;;;5032629;28;20457;-58
2023/03/30 12:32:18;;;;;;;17.37;16.77;;;24.10;56.00;;;;;;5034034;28;20449;-58
2023/03/30 12:34:45;;;;;;;17.73;17.17;;;24.10;55.10;;;;;;5034156;28;20484;-59
2023/03/30 12:37:15;;;;;;;17.33;16.73;;;24.20;55.00;;;;;;5033726;28;20488;-56
2023/03/30 12:39:47;;;;;;;18.67;17.97;;;24.10;54.70;;;;;;5033043;28;20528;-58
2023/03/30 12:42:26;;;;;;;18.37;17.53;;;24.00;54.80;;;;;;5033986;28;20449;-57
2023/03/30 12:45:20;;;;;;;17.67;17.10;;;23.90;54.70;;;;;;5033311;28;20949;-61
2023/03/30 12:48:22;;;;;;;17.50;16.90;;;23.80;54.40;;;;;;5034003;28;20523;-55
2023/03/30 12:51:01;;;;;;;17.63;17.03;;;23.90;54.50;;;;;;5032942;28;20484;-55
2023/03/30 12:53:57;;;;;;;18.63;18.00;;;23.90;54.70;;;;;;5035066;28;20479;-56
2023/03/30 12:56:36;;;;;;;17.23;16.63;;;23.90;54.90;;;;;;5033903;28;20512;-56